createdAt,value
2023-05-05T00:04:23.067Z,70.95
2023-05-05T00:09:28.934Z,71.51
2023-05-05T00:14:35.226Z,71.57
2023-05-05T00:19:42.108Z,71.43
2023-05-05T00:24:47.882Z,71.33
2023-05-05T00:29:52.374Z,71.37
2023-05-05T00:34:57.008Z,72.06
2023-05-05T00:40:02.605Z,71.86
2023-05-05T00:45:11.378Z,72.73
2023-05-05T00:50:29.914Z,73.05
2023-05-05T00:55:35.051Z,72.40
2023-05-05T01:00:38.969Z,73.05
2023-05-05T01:06:06.017Z,72.67
2023-05-05T01:11:29.938Z,72.24
2023-05-05T01:16:35.580Z,72.64
2023-05-05T01:21:47.658Z,72.72
2023-05-05T01:27:02.087Z,72.38
2023-05-05T01:32:16.952Z,72.23
2023-05-05T01:37:31.625Z,71.82
2023-05-05T01:42:38.017Z,71.95
2023-05-05T01:47:43.328Z,71.87
2023-05-05T01:52:48.176Z,71.85
2023-05-05T01:57:52.857Z,71.73
2023-05-05T02:03:00.264Z,71.82
2023-05-05T02:08:06.687Z,71.82
2023-05-05T02:13:13.873Z,71.53
2023-05-05T02:18:20.171Z,71.24
2023-05-05T02:23:31.597Z,71.53
2023-05-05T02:28:49.092Z,71.62
2023-05-05T02:33:56.833Z,71.87
2023-05-05T02:39:10.253Z,71.74
2023-05-05T02:44:14.935Z,71.96
2023-05-05T02:49:20.828Z,72.03
2023-05-05T02:54:27.511Z,72.16
2023-05-05T02:59:57.241Z,72.61
2023-05-05T03:05:25.865Z,72.53
2023-05-05T03:10:35.480Z,73.01
2023-05-05T03:15:46.788Z,73.56
2023-05-05T03:20:52.463Z,73.39
2023-05-05T03:25:56.986Z,73.22
2023-05-05T03:31:15.269Z,72.95
2023-05-05T03:36:19.932Z,73.17
2023-05-05T03:41:25.391Z,73.06
2023-05-05T03:46:50.731Z,72.81
2023-05-05T03:51:55.438Z,73.99
2023-05-05T03:57:00.467Z,73.02
2023-05-05T04:02:05.651Z,73.68
2023-05-05T04:07:10.082Z,73.38
2023-05-05T04:12:15.421Z,73.34
2023-05-05T04:17:21.770Z,72.70
2023-05-05T04:22:26.909Z,72.43
2023-05-05T04:27:31.181Z,72.75
2023-05-05T04:32:36.184Z,72.70
2023-05-05T04:37:42.741Z,72.37
2023-05-05T04:42:47.457Z,72.28
2023-05-05T04:47:52.080Z,71.20
2023-05-05T04:52:57.412Z,68.99
2023-05-05T04:58:02.428Z,64.71
2023-05-05T05:03:09.704Z,60.73
2023-05-05T05:08:20.280Z,56.84
2023-05-05T05:13:24.343Z,59.00
2023-05-05T05:18:28.515Z,60.98
2023-05-05T05:23:34.950Z,61.65
2023-05-05T05:28:41.985Z,62.78
2023-05-05T05:33:48.973Z,63.36
2023-05-05T05:38:53.554Z,63.48
2023-05-05T05:43:57.849Z,63.19
2023-05-05T05:49:03.026Z,62.59
2023-05-05T05:54:09.050Z,62.14
2023-05-05T05:59:14.173Z,61.50
2023-05-05T06:04:18.992Z,60.70
2023-05-05T06:09:23.736Z,60.86
2023-05-05T06:14:28.811Z,60.74
2023-05-05T06:19:33.408Z,61.27
2023-05-05T06:24:38.638Z,60.55
2023-05-05T06:29:42.866Z,59.68
2023-05-05T06:34:48.644Z,59.03
2023-05-05T06:39:52.482Z,57.51
2023-05-05T06:44:56.863Z,57.81
2023-05-05T06:50:01.018Z,58.09
2023-05-05T06:55:05.664Z,57.05
2023-05-05T07:00:11.842Z,56.07
2023-05-05T07:05:15.912Z,55.84
2023-05-05T07:10:20.308Z,56.35
2023-05-05T07:15:29.324Z,55.33
2023-05-05T07:20:34.537Z,54.33
2023-05-05T07:25:38.738Z,54.12
2023-05-05T07:30:42.527Z,54.30
2023-05-05T07:35:46.627Z,53.59
2023-05-05T07:40:50.920Z,53.48
2023-05-05T07:45:55.309Z,52.98
2023-05-05T07:50:59.314Z,52.32
2023-05-05T07:56:03.636Z,52.33
2023-05-05T08:01:11.149Z,51.88
2023-05-05T08:06:22.469Z,50.99
2023-05-05T08:11:28.993Z,50.17
2023-05-05T08:16:33.358Z,50.56
2023-05-05T08:21:37.547Z,50.16
2023-05-05T08:26:41.572Z,49.02
2023-05-05T08:31:45.437Z,49.78
2023-05-05T08:36:50.892Z,50.36
2023-05-05T08:41:55.161Z,47.61
2023-05-05T08:47:02.287Z,46.97
2023-05-05T08:52:09.920Z,45.52
2023-05-05T08:57:15.488Z,46.11
2023-05-05T09:02:24.122Z,45.03
2023-05-05T09:07:28.097Z,44.84
2023-05-05T09:12:32.391Z,43.87
2023-05-05T09:17:36.889Z,43.27
2023-05-05T09:22:43.011Z,41.51
2023-05-05T09:27:49.685Z,40.57
2023-05-05T09:32:55.319Z,42.10
2023-05-05T09:38:12.471Z,41.76
2023-05-05T09:43:17.366Z,39.88
2023-05-05T09:48:29.530Z,39.28
2023-05-05T09:53:41.949Z,38.30
2023-05-05T09:58:45.739Z,38.96
2023-05-05T10:03:52.758Z,39.20
2023-05-05T10:09:02.902Z,38.69
2023-05-05T10:14:07.257Z,37.83
2023-05-05T10:19:16.698Z,36.84
2023-05-05T10:24:34.031Z,36.70
2023-05-05T10:29:48.268Z,36.24
2023-05-05T10:34:55.155Z,36.23
2023-05-05T10:39:59.486Z,36.14
2023-05-05T10:45:03.473Z,36.96
2023-05-05T10:50:13.279Z,36.64
2023-05-05T10:55:21.568Z,36.33
2023-05-05T11:00:40.740Z,35.32
2023-05-05T11:06:08.091Z,36.73
2023-05-05T11:11:12.937Z,36.88
2023-05-05T11:16:45.064Z,35.59
2023-05-05T11:22:04.339Z,36.54
2023-05-05T11:27:08.554Z,36.45
2023-05-05T11:32:14.242Z,35.07
2023-05-05T11:37:18.327Z,35.10
2023-05-05T11:42:28.829Z,34.90
2023-05-05T11:47:33.116Z,36.01
2023-05-05T11:52:37.039Z,34.58
2023-05-05T11:57:40.865Z,34.27
2023-05-05T12:02:44.774Z,35.22
2023-05-05T12:07:48.502Z,36.33
2023-05-05T12:12:55.592Z,34.35
2023-05-05T12:18:02.436Z,33.67
2023-05-05T12:23:12.646Z,34.48
2023-05-05T12:28:16.637Z,35.43
2023-05-05T12:33:20.886Z,34.82
2023-05-05T12:38:27.486Z,34.50
2023-05-05T12:43:35.866Z,33.85
2023-05-05T12:48:48.378Z,33.66
2023-05-05T12:54:12.051Z,33.22
2023-05-05T12:59:22.097Z,33.35
2023-05-05T13:04:27.724Z,33.44
2023-05-05T13:09:31.698Z,33.11
2023-05-05T13:14:36.816Z,34.22
2023-05-05T13:19:46.728Z,33.54
2023-05-05T13:24:52.346Z,32.66
2023-05-05T13:30:11.682Z,34.37
2023-05-05T13:35:16.603Z,35.37
2023-05-05T13:40:22.287Z,33.97
2023-05-05T13:45:29.279Z,33.21
2023-05-05T13:50:33.336Z,34.50
2023-05-05T13:55:38.574Z,33.05
2023-05-05T14:00:42.428Z,33.54
2023-05-05T14:05:46.733Z,33.08
2023-05-05T14:10:52.258Z,33.71
2023-05-05T14:15:58.686Z,34.88
2023-05-05T14:21:02.666Z,34.43
2023-05-05T14:26:09.327Z,33.89
2023-05-05T14:31:14.296Z,34.63
2023-05-05T14:36:18.513Z,33.68
2023-05-05T14:41:22.667Z,32.89
2023-05-05T14:46:27.939Z,32.55
2023-05-05T14:51:32.406Z,33.09
2023-05-05T14:56:37.219Z,32.95
2023-05-05T15:01:41.813Z,33.22
2023-05-05T15:06:46.411Z,33.55
2023-05-05T15:11:50.281Z,34.01
2023-05-05T15:16:57.590Z,33.93
2023-05-05T15:22:01.659Z,34.41
2023-05-05T15:27:06.125Z,32.97
2023-05-05T15:32:10.348Z,32.77
2023-05-05T15:37:15.202Z,32.63
2023-05-05T15:42:19.239Z,33.43
2023-05-05T15:47:26.499Z,33.62
2023-05-05T15:52:32.479Z,33.71
2023-05-05T15:57:36.325Z,34.20
2023-05-05T16:02:41.150Z,33.29
2023-05-05T16:07:49.417Z,32.80
2023-05-05T16:12:53.439Z,32.96
2023-05-05T16:17:57.379Z,32.96
2023-05-05T16:23:01.247Z,33.29
2023-05-05T16:28:05.152Z,33.40
2023-05-05T16:33:09.247Z,33.80
2023-05-05T16:38:14.729Z,34.09
2023-05-05T16:43:19.950Z,34.28
2023-05-05T16:48:23.836Z,33.54
2023-05-05T16:53:27.733Z,32.58
2023-05-05T16:58:31.649Z,31.66
2023-05-05T17:03:36.423Z,31.24
2023-05-05T17:08:41.620Z,31.14
2023-05-05T17:13:45.710Z,31.82
2023-05-05T17:18:49.835Z,32.70
2023-05-05T17:23:54.805Z,33.50
2023-05-05T17:28:58.856Z,34.33
2023-05-05T17:34:02.838Z,35.16
2023-05-05T17:39:06.809Z,35.85
2023-05-05T17:44:10.656Z,36.42
2023-05-05T17:49:15.441Z,36.90
2023-05-05T17:54:19.397Z,37.38
2023-05-05T17:59:23.690Z,38.35
2023-05-05T18:04:27.752Z,39.46
2023-05-05T18:09:32.075Z,41.61
2023-05-05T18:14:36.712Z,44.10
2023-05-05T18:19:46.595Z,45.09
2023-05-05T18:24:59.337Z,46.46
2023-05-05T18:30:05.259Z,47.48
2023-05-05T18:35:10.266Z,48.29
2023-05-05T18:40:14.493Z,49.33
2023-05-05T18:45:23.080Z,49.40
2023-05-05T18:50:27.524Z,49.79
2023-05-05T18:55:32.304Z,50.31
2023-05-05T19:00:36.465Z,50.81
2023-05-05T19:05:41.221Z,51.76
2023-05-05T19:10:45.544Z,52.29
2023-05-05T19:15:52.317Z,52.53
2023-05-05T19:20:56.512Z,53.43
2023-05-05T19:26:02.101Z,53.75
2023-05-05T19:31:06.849Z,53.98
2023-05-05T19:36:12.716Z,54.73
2023-05-05T19:41:18.203Z,55.34
2023-05-05T19:46:24.665Z,55.39
2023-05-05T19:51:28.782Z,55.93
2023-05-05T19:56:33.377Z,55.93
2023-05-05T20:01:37.369Z,56.71
2023-05-05T20:06:41.774Z,57.33
2023-05-05T20:11:46.300Z,57.77
2023-05-05T20:16:50.589Z,57.62
2023-05-05T20:21:55.077Z,58.03
2023-05-05T20:26:58.895Z,58.50
2023-05-05T20:32:02.854Z,58.69
2023-05-05T20:37:06.903Z,58.53
2023-05-05T20:42:11.377Z,58.88
2023-05-05T20:47:17.313Z,59.07
2023-05-05T20:52:21.827Z,59.21
2023-05-05T20:57:26.650Z,59.42
2023-05-05T21:02:32.220Z,59.84
2023-05-05T21:07:36.601Z,60.11
2023-05-05T21:12:41.819Z,60.27
2023-05-05T21:17:46.845Z,60.58
2023-05-05T21:22:51.376Z,60.99
2023-05-05T21:27:56.572Z,61.22
2023-05-05T21:33:02.631Z,61.44
2023-05-05T21:38:08.026Z,61.55
2023-05-05T21:43:13.628Z,62.03
2023-05-05T21:48:18.724Z,62.25
2023-05-05T21:53:25.259Z,62.63
2023-05-05T21:58:29.632Z,63.01
2023-05-05T22:03:35.063Z,62.98
2023-05-05T22:08:41.360Z,63.05
2023-05-05T22:13:46.068Z,63.36
2023-05-05T22:18:50.584Z,63.92
2023-05-05T22:23:54.779Z,64.08
2023-05-05T22:28:59.597Z,64.54
2023-05-05T22:34:05.334Z,65.03
2023-05-05T22:39:09.480Z,65.37
2023-05-05T22:44:13.381Z,65.48
2023-05-05T22:49:17.494Z,65.82
2023-05-05T22:54:23.614Z,65.96
2023-05-05T22:59:29.064Z,66.36
2023-05-05T23:04:33.167Z,66.50
2023-05-05T23:09:37.264Z,66.56
2023-05-05T23:14:41.402Z,66.67
2023-05-05T23:19:48.496Z,66.63
2023-05-05T23:24:52.268Z,67.22
2023-05-05T23:29:56.161Z,67.58
2023-05-05T23:35:00.561Z,67.32
2023-05-05T23:40:05.850Z,67.64
2023-05-05T23:45:10.496Z,67.58
2023-05-05T23:50:15.425Z,67.83
2023-05-05T23:55:19.597Z,67.90
